Cookies

¿Aceptas nuestras cookies?

Aceptar
VAM | Vabird-VBD

Virtual Vabird! Aerolínea Virtual de habla hispana, desde 2011




 INFORMACIÓN METAR y TAF
METAR FOR LEMG
ADDS - METARS form results

(0034 UTC 27 September 2021)
Data provider http://aviationweather.gov/metar/data/
 
METAR text: LEMG 270030Z 30004KT 9999 FEW012 18/15 Q1021 NOSIG
Conditions at: LEMG (MALAGA (CIV/MIL), ES) observed 0030 UTC 27 September 2021
Temperature: 18.0°C (64°F)
Dewpoint: 15.0°C (59°F) [RH = 83%]
Pressure (altimeter): 30.15 inches Hg (1021.0 mb)
Winds: from the WNW (300 degrees) at 5 MPH (4 knots; 2.1 m/s)
Visibility: 6 or more miles (10+ km)
Ceiling: at least 12,000 feet AGL
Clouds: few clouds at 1200 feet AGL
Weather: no significant weather observed at this time

METAR text: LEMG 270000Z 31003KT CAVOK 19/16 Q1021 NOSIG
Conditions at: LEMG (MALAGA (CIV/MIL), ES) observed 0000 UTC 27 September 2021
Temperature: 19.0°C (66°F)
Dewpoint: 16.0°C (61°F) [RH = 83%]
Pressure (altimeter): 30.15 inches Hg (1021.0 mb)
Winds: from the NW (310 degrees) at 3 MPH (3 knots; 1.5 m/s)
Visibility: 6 or more miles (10+ km)
Ceiling: ceiling and visibility are OK
Clouds: unknown
Weather: no significant weather observed at this time

Forecast for: LEMG (MALAGA (CIV/MIL), ES)
Text: TAF LEMG 262300Z 2700/2724 29004KT CAVOK TX29/2714Z TN20/2705Z
Forecast period: 0000 to 1000 UTC 27 September 2021
Forecast type: FROM: standard forecast or significant change
Winds: from the WNW (290 degrees) at 5 MPH (4 knots; 2.1 m/s)
Visibility: 6 or more miles (10+ km)
Ceiling: unknown
Clouds: missing
Weather: no significant weather forecast for this period
Text: BECMG 2710/2712 13008KT
Forecast period: 1000 to 1800 UTC 27 September 2021
Forecast type: BECOMING: Conditions expected to become as follows by 1200 UTC 27 September 2021
Winds: from the SE (130 degrees) at 9 MPH (8 knots; 4.1 m/s)
Visibility: 6 or more miles (10+ km)
Ceiling: unknown
Clouds: missing
Weather: no significant weather forecast for this period
Text: BECMG 2718/2720 VRB02KT
Forecast period: 1800 UTC 27 September 2021 to 0000 UTC 28 September 2021
Forecast type: BECOMING: Conditions expected to become as follows by 2000 UTC 27 September 2021
Winds: variable direction winds at 2 MPH (2 knots; 1.0 m/s)
Visibility: 6 or more miles (10+ km)
Ceiling: unknown
Clouds: missing
Weather: no significant weather forecast for this period

 MAPA DE AEROPUERTO

 INFORMACIÓN DE PISTA